sensor_id;sensor_type;location;lat;lon;timestamp;temperature;humidity
42245;DHT22;27912;51.828;5.688;2023-04-01T00:00:53;10.10;99.90
42245;DHT22;27912;51.828;5.688;2023-04-01T00:03:20;10.10;99.90
42245;DHT22;27912;51.828;5.688;2023-04-01T00:05:46;10.10;99.90
42245;DHT22;27912;51.828;5.688;2023-04-01T00:08:12;10.10;99.90
42245;DHT22;27912;51.828;5.688;2023-04-01T00:10:38;10.10;99.90
42245;DHT22;27912;51.828;5.688;2023-04-01T00:13:04;10.20;99.90
42245;DHT22;27912;51.828;5.688;2023-04-01T00:15:30;10.10;99.90
42245;DHT22;27912;51.828;5.688;2023-04-01T00:17:55;10.10;99.90
42245;DHT22;27912;51.828;5.688;2023-04-01T00:20:21;10.10;99.90
42245;DHT22;27912;51.828;5.688;2023-04-01T00:22:47;10.20;99.90
42245;DHT22;27912;51.828;5.688;2023-04-01T00:25:13;10.20;99.90
42245;DHT22;27912;51.828;5.688;2023-04-01T00:27:40;10.20;99.90
42245;DHT22;27912;51.828;5.688;2023-04-01T00:30:06;10.10;99.90
42245;DHT22;27912;51.828;5.688;2023-04-01T00:32:32;10.20;99.90
42245;DHT22;27912;51.828;5.688;2023-04-01T00:34:58;10.10;99.90
42245;DHT22;27912;51.828;5.688;2023-04-01T00:37:25;10.10;99.90
42245;DHT22;27912;51.828;5.688;2023-04-01T00:39:51;10.10;99.90
42245;DHT22;27912;51.828;5.688;2023-04-01T00:42:17;10.20;99.90
42245;DHT22;27912;51.828;5.688;2023-04-01T00:44:46;10.10;99.90
42245;DHT22;27912;51.828;5.688;2023-04-01T00:47:13;10.10;99.90
42245;DHT22;27912;51.828;5.688;2023-04-01T00:49:42;10.10;99.90
42245;DHT22;27912;51.828;5.688;2023-04-01T00:52:11;10.10;99.90
42245;DHT22;27912;51.828;5.688;2023-04-01T00:54:38;10.10;99.90
42245;DHT22;27912;51.828;5.688;2023-04-01T00:57:15;10.20;99.90
42245;DHT22;27912;51.828;5.688;2023-04-01T00:59:46;10.20;99.90
42245;DHT22;27912;51.828;5.688;2023-04-01T01:02:13;10.20;99.90
42245;DHT22;27912;51.828;5.688;2023-04-01T01:04:39;10.10;99.90
42245;DHT22;27912;51.828;5.688;2023-04-01T01:15:20;10.20;99.90
42245;DHT22;27912;51.828;5.688;2023-04-01T01:17:53;10.20;99.90
42245;DHT22;27912;51.828;5.688;2023-04-01T01:23:35;10.20;99.90
42245;DHT22;27912;51.828;5.688;2023-04-01T01:28:46;10.20;99.90
42245;DHT22;27912;51.828;5.688;2023-04-01T01:36:42;10.20;99.90
42245;DHT22;27912;51.828;5.688;2023-04-01T01:39:12;10.10;99.90
42245;DHT22;27912;51.828;5.688;2023-04-01T01:41:39;10.10;99.90
42245;DHT22;27912;51.828;5.688;2023-04-01T01:44:08;10.10;99.90
42245;DHT22;27912;51.828;5.688;2023-04-01T01:46:38;10.10;99.90
42245;DHT22;27912;51.828;5.688;2023-04-01T01:49:05;10.10;99.90
42245;DHT22;27912;51.828;5.688;2023-04-01T01:51:32;10.10;99.90
42245;DHT22;27912;51.828;5.688;2023-04-01T01:53:58;10.10;99.90
42245;DHT22;27912;51.828;5.688;2023-04-01T01:56:27;10.10;99.90
42245;DHT22;27912;51.828;5.688;2023-04-01T01:59:00;10.00;99.90
42245;DHT22;27912;51.828;5.688;2023-04-01T02:01:30;10.00;99.90
42245;DHT22;27912;51.828;5.688;2023-04-01T02:03:57;10.00;99.90
42245;DHT22;27912;51.828;5.688;2023-04-01T02:06:25;10.00;99.90
42245;DHT22;27912;51.828;5.688;2023-04-01T02:08:55;10.00;99.90
42245;DHT22;27912;51.828;5.688;2023-04-01T02:11:32;10.00;99.90
42245;DHT22;27912;51.828;5.688;2023-04-01T02:14:16;10.00;99.90
42245;DHT22;27912;51.828;5.688;2023-04-01T02:16:51;10.00;99.90
42245;DHT22;27912;51.828;5.688;2023-04-01T02:19:21;10.00;99.90
42245;DHT22;27912;51.828;5.688;2023-04-01T02:21:57;10.00;99.90
42245;DHT22;27912;51.828;5.688;2023-04-01T02:24:26;10.00;99.90
42245;DHT22;27912;51.828;5.688;2023-04-01T02:26:53;10.00;99.90
42245;DHT22;27912;51.828;5.688;2023-04-01T02:29:21;9.90;99.90
42245;DHT22;27912;51.828;5.688;2023-04-01T02:31:47;9.90;99.90
42245;DHT22;27912;51.828;5.688;2023-04-01T02:34:14;9.90;99.90
42245;DHT22;27912;51.828;5.688;2023-04-01T02:36:40;9.90;99.90
42245;DHT22;27912;51.828;5.688;2023-04-01T02:39:06;9.90;99.90
42245;DHT22;27912;51.828;5.688;2023-04-01T02:41:39;9.80;99.90
42245;DHT22;27912;51.828;5.688;2023-04-01T02:44:05;9.80;99.90
42245;DHT22;27912;51.828;5.688;2023-04-01T02:46:30;9.80;99.90
42245;DHT22;27912;51.828;5.688;2023-04-01T02:48:56;9.80;99.90
42245;DHT22;27912;51.828;5.688;2023-04-01T02:51:21;9.80;99.90
42245;DHT22;27912;51.828;5.688;2023-04-01T02:53:47;9.80;99.90
42245;DHT22;27912;51.828;5.688;2023-04-01T02:56:12;9.70;99.90
42245;DHT22;27912;51.828;5.688;2023-04-01T02:58:38;9.70;99.90
42245;DHT22;27912;51.828;5.688;2023-04-01T03:01:03;9.70;99.90
42245;DHT22;27912;51.828;5.688;2023-04-01T03:03:29;9.70;99.90
42245;DHT22;27912;51.828;5.688;2023-04-01T03:05:54;9.70;99.90
42245;DHT22;27912;51.828;5.688;2023-04-01T03:08:21;9.70;99.90
42245;DHT22;27912;51.828;5.688;2023-04-01T03:10:47;9.60;99.90
42245;DHT22;27912;51.828;5.688;2023-04-01T03:13:12;9.70;99.90
42245;DHT22;27912;51.828;5.688;2023-04-01T03:15:38;9.70;99.90
42245;DHT22;27912;51.828;5.688;2023-04-01T03:18:04;9.60;99.90
42245;DHT22;27912;51.828;5.688;2023-04-01T03:20:29;9.60;99.90
42245;DHT22;27912;51.828;5.688;2023-04-01T03:22:55;9.60;99.90
42245;DHT22;27912;51.828;5.688;2023-04-01T03:25:20;9.60;99.90
42245;DHT22;27912;51.828;5.688;2023-04-01T03:27:46;9.60;99.90
42245;DHT22;27912;51.828;5.688;2023-04-01T03:30:12;9.60;99.90
42245;DHT22;27912;51.828;5.688;2023-04-01T03:32:37;9.60;99.90
42245;DHT22;27912;51.828;5.688;2023-04-01T03:35:03;9.60;99.90
42245;DHT22;27912;51.828;5.688;2023-04-01T03:37:30;9.60;99.90
42245;DHT22;27912;51.828;5.688;2023-04-01T03:39:55;9.60;99.90
42245;DHT22;27912;51.828;5.688;2023-04-01T03:42:21;9.60;99.90
42245;DHT22;27912;51.828;5.688;2023-04-01T03:44:46;9.60;99.90
42245;DHT22;27912;51.828;5.688;2023-04-01T03:47:12;9.60;99.90
42245;DHT22;27912;51.828;5.688;2023-04-01T03:49:37;9.60;99.90
42245;DHT22;27912;51.828;5.688;2023-04-01T03:52:03;9.60;99.90
42245;DHT22;27912;51.828;5.688;2023-04-01T03:54:28;9.60;99.90
42245;DHT22;27912;51.828;5.688;2023-04-01T03:56:54;9.50;99.90
42245;DHT22;27912;51.828;5.688;2023-04-01T03:59:20;9.50;99.90
42245;DHT22;27912;51.828;5.688;2023-04-01T04:01:46;9.50;99.90
42245;DHT22;27912;51.828;5.688;2023-04-01T04:04:13;9.50;99.90
42245;DHT22;27912;51.828;5.688;2023-04-01T04:06:40;9.50;99.90
42245;DHT22;27912;51.828;5.688;2023-04-01T04:09:05;9.50;99.90
42245;DHT22;27912;51.828;5.688;2023-04-01T04:11:31;9.50;99.90
42245;DHT22;27912;51.828;5.688;2023-04-01T04:13:58;9.50;99.90
42245;DHT22;27912;51.828;5.688;2023-04-01T04:16:24;9.50;99.90
42245;DHT22;27912;51.828;5.688;2023-04-01T04:18:49;9.40;99.90
42245;DHT22;27912;51.828;5.688;2023-04-01T04:21:16;9.40;99.90
42245;DHT22;27912;51.828;5.688;2023-04-01T04:23:42;9.40;99.90
42245;DHT22;27912;51.828;5.688;2023-04-01T04:26:10;9.40;99.90
42245;DHT22;27912;51.828;5.688;2023-04-01T04:28:36;9.40;99.90
42245;DHT22;27912;51.828;5.688;2023-04-01T04:31:02;9.40;99.90
42245;DHT22;27912;51.828;5.688;2023-04-01T04:33:30;9.40;99.90
42245;DHT22;27912;51.828;5.688;2023-04-01T04:35:57;9.40;99.90
42245;DHT22;27912;51.828;5.688;2023-04-01T04:38:23;9.30;99.90
42245;DHT22;27912;51.828;5.688;2023-04-01T04:40:49;9.40;99.90
42245;DHT22;27912;51.828;5.688;2023-04-01T04:43:16;9.30;99.90
42245;DHT22;27912;51.828;5.688;2023-04-01T04:45:41;9.40;99.90
42245;DHT22;27912;51.828;5.688;2023-04-01T04:48:11;9.30;99.90
42245;DHT22;27912;51.828;5.688;2023-04-01T04:50:41;9.30;99.90
42245;DHT22;27912;51.828;5.688;2023-04-01T04:53:10;9.30;99.90
42245;DHT22;27912;51.828;5.688;2023-04-01T04:55:35;9.30;99.90
42245;DHT22;27912;51.828;5.688;2023-04-01T04:58:01;9.30;99.90
42245;DHT22;27912;51.828;5.688;2023-04-01T05:00:26;9.30;99.90
42245;DHT22;27912;51.828;5.688;2023-04-01T05:02:52;9.30;99.90
42245;DHT22;27912;51.828;5.688;2023-04-01T05:05:18;9.20;99.90
42245;DHT22;27912;51.828;5.688;2023-04-01T05:07:43;9.20;99.90
42245;DHT22;27912;51.828;5.688;2023-04-01T05:10:09;9.20;99.90
42245;DHT22;27912;51.828;5.688;2023-04-01T05:12:35;9.20;99.90
42245;DHT22;27912;51.828;5.688;2023-04-01T05:15:08;9.20;99.90
42245;DHT22;27912;51.828;5.688;2023-04-01T05:17:34;9.20;99.90
42245;DHT22;27912;51.828;5.688;2023-04-01T05:19:59;9.20;99.90
42245;DHT22;27912;51.828;5.688;2023-04-01T05:22:25;9.20;99.90
42245;DHT22;27912;51.828;5.688;2023-04-01T05:24:51;9.20;99.90
42245;DHT22;27912;51.828;5.688;2023-04-01T05:27:17;9.20;99.90
42245;DHT22;27912;51.828;5.688;2023-04-01T05:29:42;9.20;99.90
42245;DHT22;27912;51.828;5.688;2023-04-01T05:32:08;9.30;99.90
42245;DHT22;27912;51.828;5.688;2023-04-01T05:34:33;9.30;99.90
42245;DHT22;27912;51.828;5.688;2023-04-01T05:36:59;9.30;99.90
42245;DHT22;27912;51.828;5.688;2023-04-01T05:39:24;9.40;99.90
42245;DHT22;27912;51.828;5.688;2023-04-01T05:41:50;9.40;99.90
42245;DHT22;27912;51.828;5.688;2023-04-01T05:44:16;9.40;99.90
42245;DHT22;27912;51.828;5.688;2023-04-01T05:46:41;9.50;99.90
42245;DHT22;27912;51.828;5.688;2023-04-01T05:49:07;9.50;99.90
42245;DHT22;27912;51.828;5.688;2023-04-01T05:51:32;9.50;99.90
42245;DHT22;27912;51.828;5.688;2023-04-01T05:53:58;9.50;99.90
42245;DHT22;27912;51.828;5.688;2023-04-01T05:56:24;9.60;99.90
42245;DHT22;27912;51.828;5.688;2023-04-01T05:58:52;9.60;99.90
42245;DHT22;27912;51.828;5.688;2023-04-01T06:01:19;9.60;99.90
42245;DHT22;27912;51.828;5.688;2023-04-01T06:03:45;9.60;99.90
42245;DHT22;27912;51.828;5.688;2023-04-01T06:06:14;9.60;99.90
42245;DHT22;27912;51.828;5.688;2023-04-01T06:08:41;9.60;99.90
42245;DHT22;27912;51.828;5.688;2023-04-01T06:11:23;9.60;99.90
42245;DHT22;27912;51.828;5.688;2023-04-01T06:14:19;9.60;99.90
42245;DHT22;27912;51.828;5.688;2023-04-01T06:33:43;9.70;99.90
42245;DHT22;27912;51.828;5.688;2023-04-01T06:39:27;9.70;99.90
42245;DHT22;27912;51.828;5.688;2023-04-01T06:42:22;9.70;99.90
42245;DHT22;27912;51.828;5.688;2023-04-01T06:53:30;9.70;99.90
42245;DHT22;27912;51.828;5.688;2023-04-01T06:56:05;9.70;99.90
42245;DHT22;27912;51.828;5.688;2023-04-01T06:58:54;9.70;99.90
42245;DHT22;27912;51.828;5.688;2023-04-01T07:01:44;9.80;99.90
42245;DHT22;27912;51.828;5.688;2023-04-01T07:04:30;9.70;99.90
42245;DHT22;27912;51.828;5.688;2023-04-01T07:07:03;9.70;99.90
42245;DHT22;27912;51.828;5.688;2023-04-01T07:09:39;9.70;99.90
42245;DHT22;27912;51.828;5.688;2023-04-01T07:12:39;9.70;99.90
42245;DHT22;27912;51.828;5.688;2023-04-01T07:15:20;9.70;99.90
42245;DHT22;27912;51.828;5.688;2023-04-01T07:17:54;9.70;99.90
42245;DHT22;27912;51.828;5.688;2023-04-01T07:22:59;9.70;99.90
42245;DHT22;27912;51.828;5.688;2023-04-01T07:25:38;9.70;99.90
42245;DHT22;27912;51.828;5.688;2023-04-01T07:28:06;9.70;99.90
42245;DHT22;27912;51.828;5.688;2023-04-01T07:31:11;9.70;99.90
42245;DHT22;27912;51.828;5.688;2023-04-01T07:33:56;9.70;99.90
42245;DHT22;27912;51.828;5.688;2023-04-01T07:36:44;9.70;99.90
42245;DHT22;27912;51.828;5.688;2023-04-01T07:45:10;9.70;99.90
42245;DHT22;27912;51.828;5.688;2023-04-01T07:50:26;9.70;99.90
42245;DHT22;27912;51.828;5.688;2023-04-01T07:53:22;9.70;99.90
42245;DHT22;27912;51.828;5.688;2023-04-01T08:01:33;9.70;99.90
42245;DHT22;27912;51.828;5.688;2023-04-01T08:06:53;9.60;99.90
42245;DHT22;27912;51.828;5.688;2023-04-01T08:12:37;9.60;99.90
42245;DHT22;27912;51.828;5.688;2023-04-01T08:20:51;9.70;99.90
42245;DHT22;27912;51.828;5.688;2023-04-01T08:23:31;9.70;99.90
42245;DHT22;27912;51.828;5.688;2023-04-01T08:26:16;9.70;99.90
42245;DHT22;27912;51.828;5.688;2023-04-01T08:29:04;9.70;99.90
42245;DHT22;27912;51.828;5.688;2023-04-01T08:32:08;9.70;99.90
42245;DHT22;27912;51.828;5.688;2023-04-01T08:34:32;9.70;99.90
42245;DHT22;27912;51.828;5.688;2023-04-01T08:37:08;9.80;99.90
42245;DHT22;27912;51.828;5.688;2023-04-01T08:39:50;9.90;99.90
42245;DHT22;27912;51.828;5.688;2023-04-01T08:48:45;9.90;99.90
42245;DHT22;27912;51.828;5.688;2023-04-01T08:59:56;10.00;99.90
42245;DHT22;27912;51.828;5.688;2023-04-01T09:08:31;10.10;99.90
42245;DHT22;27912;51.828;5.688;2023-04-01T09:11:08;10.20;99.90
42245;DHT22;27912;51.828;5.688;2023-04-01T09:19:22;10.20;99.90
42245;DHT22;27912;51.828;5.688;2023-04-01T09:22:02;10.20;99.90
42245;DHT22;27912;51.828;5.688;2023-04-01T09:32:48;10.10;99.90
42245;DHT22;27912;51.828;5.688;2023-04-01T09:40:25;10.10;99.90
42245;DHT22;27912;51.828;5.688;2023-04-01T09:43:16;10.10;99.90
42245;DHT22;27912;51.828;5.688;2023-04-01T09:49:08;10.00;99.90
42245;DHT22;27912;51.828;5.688;2023-04-01T10:00:13;10.00;99.90
42245;DHT22;27912;51.828;5.688;2023-04-01T10:02:59;10.00;99.90
42245;DHT22;27912;51.828;5.688;2023-04-01T10:09:01;10.00;99.90
42245;DHT22;27912;51.828;5.688;2023-04-01T10:20:23;10.00;99.90
42245;DHT22;27912;51.828;5.688;2023-04-01T10:29:13;10.20;99.90
42245;DHT22;27912;51.828;5.688;2023-04-01T10:40:22;10.30;99.90
42245;DHT22;27912;51.828;5.688;2023-04-01T10:51:40;10.40;99.90
42245;DHT22;27912;51.828;5.688;2023-04-01T10:54:41;10.40;99.90
42245;DHT22;27912;51.828;5.688;2023-04-01T10:58:03;10.40;99.90
42245;DHT22;27912;51.828;5.688;2023-04-01T11:10:01;10.30;99.90
42245;DHT22;27912;51.828;5.688;2023-04-01T11:13:19;10.30;99.90
42245;DHT22;27912;51.828;5.688;2023-04-01T11:16:26;10.30;99.90
42245;DHT22;27912;51.828;5.688;2023-04-01T11:18:41;10.30;99.90
42245;DHT22;27912;51.828;5.688;2023-04-01T11:21:19;10.30;99.90
42245;DHT22;27912;51.828;5.688;2023-04-01T11:24:05;10.30;99.90
42245;DHT22;27912;51.828;5.688;2023-04-01T11:26:57;10.30;99.90
42245;DHT22;27912;51.828;5.688;2023-04-01T11:29:42;10.30;99.90
42245;DHT22;27912;51.828;5.688;2023-04-01T11:35:38;10.40;99.90
42245;DHT22;27912;51.828;5.688;2023-04-01T11:43:26;10.90;99.90
42245;DHT22;27912;51.828;5.688;2023-04-01T11:46:14;10.90;99.90
42245;DHT22;27912;51.828;5.688;2023-04-01T11:49:13;10.90;99.90
42245;DHT22;27912;51.828;5.688;2023-04-01T11:54:44;10.90;99.90
42245;DHT22;27912;51.828;5.688;2023-04-01T12:00:14;10.80;99.90
42245;DHT22;27912;51.828;5.688;2023-04-01T12:05:43;10.80;99.90
42245;DHT22;27912;51.828;5.688;2023-04-01T12:11:15;10.80;99.90
42245;DHT22;27912;51.828;5.688;2023-04-01T12:13:49;10.90;99.90
42245;DHT22;27912;51.828;5.688;2023-04-01T12:19:04;11.10;99.90
42245;DHT22;27912;51.828;5.688;2023-04-01T12:21:43;11.20;99.90
42245;DHT22;27912;51.828;5.688;2023-04-01T12:24:33;11.40;99.90
42245;DHT22;27912;51.828;5.688;2023-04-01T12:27:09;11.50;99.90
42245;DHT22;27912;51.828;5.688;2023-04-01T12:35:23;11.40;99.90
42245;DHT22;27912;51.828;5.688;2023-04-01T12:43:49;11.00;99.90
42245;DHT22;27912;51.828;5.688;2023-04-01T12:57:31;10.60;99.90
42245;DHT22;27912;51.828;5.688;2023-04-01T13:05:31;10.70;99.90
42245;DHT22;27912;51.828;5.688;2023-04-01T13:08:14;10.70;99.90
42245;DHT22;27912;51.828;5.688;2023-04-01T13:11:09;10.70;99.90
42245;DHT22;27912;51.828;5.688;2023-04-01T13:16:36;10.80;99.90
42245;DHT22;27912;51.828;5.688;2023-04-01T13:19:08;10.80;99.90
42245;DHT22;27912;51.828;5.688;2023-04-01T13:21:48;10.80;99.90
42245;DHT22;27912;51.828;5.688;2023-04-01T13:33:12;10.90;99.90
42245;DHT22;27912;51.828;5.688;2023-04-01T13:41:51;11.00;99.90
42245;DHT22;27912;51.828;5.688;2023-04-01T13:44:43;11.10;99.90
42245;DHT22;27912;51.828;5.688;2023-04-01T14:05:02;11.20;99.90
42245;DHT22;27912;51.828;5.688;2023-04-01T14:08:04;11.10;99.90
42245;DHT22;27912;51.828;5.688;2023-04-01T14:13:41;11.10;99.90
42245;DHT22;27912;51.828;5.688;2023-04-01T14:19:19;11.00;99.90
42245;DHT22;27912;51.828;5.688;2023-04-01T14:22:03;11.00;99.90
42245;DHT22;27912;51.828;5.688;2023-04-01T14:27:31;11.10;99.90
42245;DHT22;27912;51.828;5.688;2023-04-01T14:33:31;11.10;99.90
42245;DHT22;27912;51.828;5.688;2023-04-01T14:36:32;11.10;99.90
42245;DHT22;27912;51.828;5.688;2023-04-01T14:42:30;11.00;99.90
42245;DHT22;27912;51.828;5.688;2023-04-01T14:45:17;11.00;99.90
42245;DHT22;27912;51.828;5.688;2023-04-01T14:50:26;11.00;99.90
42245;DHT22;27912;51.828;5.688;2023-04-01T14:55:51;11.00;99.90
42245;DHT22;27912;51.828;5.688;2023-04-01T14:58:19;10.90;99.90
42245;DHT22;27912;51.828;5.688;2023-04-01T15:04:07;10.80;99.90
42245;DHT22;27912;51.828;5.688;2023-04-01T15:07:01;10.80;99.90
42245;DHT22;27912;51.828;5.688;2023-04-01T15:17:51;10.70;99.90
42245;DHT22;27912;51.828;5.688;2023-04-01T15:20:48;10.70;99.90
42245;DHT22;27912;51.828;5.688;2023-04-01T15:24:07;10.70;99.90
42245;DHT22;27912;51.828;5.688;2023-04-01T15:29:39;10.80;99.90
42245;DHT22;27912;51.828;5.688;2023-04-01T15:35:19;10.90;99.90
42245;DHT22;27912;51.828;5.688;2023-04-01T15:38:06;10.90;99.90
42245;DHT22;27912;51.828;5.688;2023-04-01T15:40:44;11.00;99.90
42245;DHT22;27912;51.828;5.688;2023-04-01T15:48:50;11.00;99.90
42245;DHT22;27912;51.828;5.688;2023-04-01T16:05:56;11.10;99.90
42245;DHT22;27912;51.828;5.688;2023-04-01T16:11:48;11.20;99.90
42245;DHT22;27912;51.828;5.688;2023-04-01T16:17:22;11.10;99.90
42245;DHT22;27912;51.828;5.688;2023-04-01T16:22:34;11.10;99.90
42245;DHT22;27912;51.828;5.688;2023-04-01T16:28:18;11.10;99.90
42245;DHT22;27912;51.828;5.688;2023-04-01T16:31:05;11.10;99.90
42245;DHT22;27912;51.828;5.688;2023-04-01T16:33:55;11.10;99.90
42245;DHT22;27912;51.828;5.688;2023-04-01T16:36:28;11.10;99.90
42245;DHT22;27912;51.828;5.688;2023-04-01T16:39:15;11.00;99.90
42245;DHT22;27912;51.828;5.688;2023-04-01T16:42:13;11.00;99.90
42245;DHT22;27912;51.828;5.688;2023-04-01T16:44:59;11.00;99.90
42245;DHT22;27912;51.828;5.688;2023-04-01T16:47:36;11.00;99.90
42245;DHT22;27912;51.828;5.688;2023-04-01T16:50:25;11.00;99.90
42245;DHT22;27912;51.828;5.688;2023-04-01T16:58:58;10.90;99.90
42245;DHT22;27912;51.828;5.688;2023-04-01T17:01:30;10.90;99.90
42245;DHT22;27912;51.828;5.688;2023-04-01T17:04:10;10.90;99.90
42245;DHT22;27912;51.828;5.688;2023-04-01T17:06:53;10.90;99.90
42245;DHT22;27912;51.828;5.688;2023-04-01T17:12:28;10.90;99.90
42245;DHT22;27912;51.828;5.688;2023-04-01T17:17:39;10.90;99.90
42245;DHT22;27912;51.828;5.688;2023-04-01T17:20:19;10.80;99.90
42245;DHT22;27912;51.828;5.688;2023-04-01T17:23:01;10.80;99.90
42245;DHT22;27912;51.828;5.688;2023-04-01T17:25:46;10.70;99.90
42245;DHT22;27912;51.828;5.688;2023-04-01T17:41:57;10.50;99.90
42245;DHT22;27912;51.828;5.688;2023-04-01T17:50:23;10.30;99.90
42245;DHT22;27912;51.828;5.688;2023-04-01T17:55:45;10.10;99.90
42245;DHT22;27912;51.828;5.688;2023-04-01T17:58:28;10.10;99.90
42245;DHT22;27912;51.828;5.688;2023-04-01T18:09:25;9.90;99.90
42245;DHT22;27912;51.828;5.688;2023-04-01T18:12:04;9.90;99.90
42245;DHT22;27912;51.828;5.688;2023-04-01T18:22:48;9.80;99.90
42245;DHT22;27912;51.828;5.688;2023-04-01T18:25:37;9.70;99.90
42245;DHT22;27912;51.828;5.688;2023-04-01T18:28:16;9.70;99.90
42245;DHT22;27912;51.828;5.688;2023-04-01T18:30:45;9.70;99.90
42245;DHT22;27912;51.828;5.688;2023-04-01T18:33:42;9.60;99.90
42245;DHT22;27912;51.828;5.688;2023-04-01T18:36:22;9.60;99.90
42245;DHT22;27912;51.828;5.688;2023-04-01T18:38:57;9.60;99.90
42245;DHT22;27912;51.828;5.688;2023-04-01T18:41:49;9.50;99.90
42245;DHT22;27912;51.828;5.688;2023-04-01T18:50:22;9.40;99.90
42245;DHT22;27912;51.828;5.688;2023-04-01T18:53:52;9.40;99.90
42245;DHT22;27912;51.828;5.688;2023-04-01T19:04:29;9.30;99.90
42245;DHT22;27912;51.828;5.688;2023-04-01T19:07:00;9.30;99.90
42245;DHT22;27912;51.828;5.688;2023-04-01T19:09:45;9.30;99.90
42245;DHT22;27912;51.828;5.688;2023-04-01T19:26:33;9.00;99.90
42245;DHT22;27912;51.828;5.688;2023-04-01T19:29:46;8.90;99.90
42245;DHT22;27912;51.828;5.688;2023-04-01T19:32:36;8.90;99.90
42245;DHT22;27912;51.828;5.688;2023-04-01T19:35:26;8.90;99.90
42245;DHT22;27912;51.828;5.688;2023-04-01T19:51:55;8.80;99.90
42245;DHT22;27912;51.828;5.688;2023-04-01T20:11:27;8.80;99.90
42245;DHT22;27912;51.828;5.688;2023-04-01T20:14:15;8.70;99.90
42245;DHT22;27912;51.828;5.688;2023-04-01T20:19:34;8.70;99.90
42245;DHT22;27912;51.828;5.688;2023-04-01T20:22:03;8.60;99.90
42245;DHT22;27912;51.828;5.688;2023-04-01T20:24:42;8.50;99.90
42245;DHT22;27912;51.828;5.688;2023-04-01T20:27:22;8.50;99.90
42245;DHT22;27912;51.828;5.688;2023-04-01T20:35:39;8.30;99.90
42245;DHT22;27912;51.828;5.688;2023-04-01T20:38:34;8.20;99.90
42245;DHT22;27912;51.828;5.688;2023-04-01T20:41:13;8.20;99.90
42245;DHT22;27912;51.828;5.688;2023-04-01T20:52:00;8.10;99.90
42245;DHT22;27912;51.828;5.688;2023-04-01T20:54:42;8.00;99.90
42245;DHT22;27912;51.828;5.688;2023-04-01T20:57:25;8.00;99.90
42245;DHT22;27912;51.828;5.688;2023-04-01T21:03:29;8.10;99.90
42245;DHT22;27912;51.828;5.688;2023-04-01T21:11:51;8.10;99.90
42245;DHT22;27912;51.828;5.688;2023-04-01T21:14:39;8.00;99.90
42245;DHT22;27912;51.828;5.688;2023-04-01T21:22:36;8.00;99.90
42245;DHT22;27912;51.828;5.688;2023-04-01T21:25:28;7.90;99.90
42245;DHT22;27912;51.828;5.688;2023-04-01T21:36:46;7.80;99.90
42245;DHT22;27912;51.828;5.688;2023-04-01T21:48:03;7.80;99.90
42245;DHT22;27912;51.828;5.688;2023-04-01T21:52:58;7.70;99.90
42245;DHT22;27912;51.828;5.688;2023-04-01T21:55:59;7.70;99.90
42245;DHT22;27912;51.828;5.688;2023-04-01T21:58:59;7.70;99.90
42245;DHT22;27912;51.828;5.688;2023-04-01T22:01:35;7.60;99.90
42245;DHT22;27912;51.828;5.688;2023-04-01T22:04:14;7.60;99.90
42245;DHT22;27912;51.828;5.688;2023-04-01T22:06:55;7.60;99.90
42245;DHT22;27912;51.828;5.688;2023-04-01T22:09:32;7.50;99.90
42245;DHT22;27912;51.828;5.688;2023-04-01T22:12:20;7.50;99.90
42245;DHT22;27912;51.828;5.688;2023-04-01T22:17:35;7.50;99.90
42245;DHT22;27912;51.828;5.688;2023-04-01T22:20:23;7.50;99.90
42245;DHT22;27912;51.828;5.688;2023-04-01T22:23:08;7.40;99.90
42245;DHT22;27912;51.828;5.688;2023-04-01T22:26:14;7.40;99.90
42245;DHT22;27912;51.828;5.688;2023-04-01T22:28:49;7.40;99.90
42245;DHT22;27912;51.828;5.688;2023-04-01T22:31:30;7.40;99.90
42245;DHT22;27912;51.828;5.688;2023-04-01T22:34:08;7.40;99.90
42245;DHT22;27912;51.828;5.688;2023-04-01T22:36:57;7.40;99.90
42245;DHT22;27912;51.828;5.688;2023-04-01T22:42:43;7.40;99.90
42245;DHT22;27912;51.828;5.688;2023-04-01T22:50:57;7.40;99.90
42245;DHT22;27912;51.828;5.688;2023-04-01T22:56:16;7.30;99.90
42245;DHT22;27912;51.828;5.688;2023-04-01T22:58:50;7.30;99.90
42245;DHT22;27912;51.828;5.688;2023-04-01T23:01:27;7.30;99.90
42245;DHT22;27912;51.828;5.688;2023-04-01T23:03:55;7.30;99.90
42245;DHT22;27912;51.828;5.688;2023-04-01T23:06:35;7.30;99.90
42245;DHT22;27912;51.828;5.688;2023-04-01T23:09:13;7.30;99.90
42245;DHT22;27912;51.828;5.688;2023-04-01T23:12:10;7.20;99.90
42245;DHT22;27912;51.828;5.688;2023-04-01T23:14:50;7.20;99.90
42245;DHT22;27912;51.828;5.688;2023-04-01T23:17:19;7.10;99.90
42245;DHT22;27912;51.828;5.688;2023-04-01T23:20:10;7.10;99.90
42245;DHT22;27912;51.828;5.688;2023-04-01T23:28:56;7.10;99.90
42245;DHT22;27912;51.828;5.688;2023-04-01T23:31:35;7.00;99.90
42245;DHT22;27912;51.828;5.688;2023-04-01T23:36:40;7.00;99.90
42245;DHT22;27912;51.828;5.688;2023-04-01T23:39:23;7.00;99.90
42245;DHT22;27912;51.828;5.688;2023-04-01T23:41:53;7.00;99.90
42245;DHT22;27912;51.828;5.688;2023-04-01T23:44:20;6.90;99.90
42245;DHT22;27912;51.828;5.688;2023-04-01T23:46:47;7.00;99.90
42245;DHT22;27912;51.828;5.688;2023-04-01T23:49:18;7.00;99.90
42245;DHT22;27912;51.828;5.688;2023-04-01T23:51:59;6.90;99.90
42245;DHT22;27912;51.828;5.688;2023-04-01T23:54:34;7.00;99.90
42245;DHT22;27912;51.828;5.688;2023-04-01T23:57:11;6.90;99.90
42245;DHT22;27912;51.828;5.688;2023-04-01T23:59:37;7.00;99.90
